KGTF/GTF METAR and TAF weather

Enter ICAO airport designator
Station Type Date Time Source
KGTF METAR 2018/12/12 06:53 UTC NOAA

KGTF 120653Z 21015G25KT 10SM CLR 06/M04 A2948 RMK AO2 PK WND 20029/0637 SLP999 T00561044 400671028


Station Type Date Time Source
KGTF Decoded METAR 2018/12/12 06:53 UTC NOAA

GREAT FALLS INTERNATIONAL, MT, United States (KGTF) 47-28N 111-23W 1119M
Dec 12, 2018 - 01:53 AM EST / 2018.12.12 0653 UTC
Wind: from the SSW (210 degrees) at 17 MPH (15 KT) gusting to 29 MPH (25 KT):0
Visibility: 10 mile(s):0
Sky conditions: clear
Temperature: 42.1 F (5.6 C)
Dew Point: 24.1 F (-4.4 C)
Relative Humidity: 48%
Pressure (altimeter): 29.48 in. Hg (998 hPa)
ob: KGTF 120653Z 21015G25KT 10SM CLR 06/M04 A2948 RMK AO2 PK WND 20029/0637 SLP999 T00561044 400671028
cycle: 7

Station Type Date Time Source
KGTF TAF 2018/12/12 06:24 UTC NOAA

TAF KGTF 120521Z 1206/1306 22025G40KT P6SM SCT025 BKN250
FM121200 24020G34KT P6SM BKN250 WS020/27045KT
FM121800 27030G50KT P6SM SCT035 BKN090
FM130300 23022G36KT P6SM SKC WS020/28040KT


Example: see airport list